createdAt,value
2023-05-19T00:01:48.509Z,48.91
2023-05-19T00:04:15.497Z,45.70
2023-05-19T00:06:42.566Z,47.44
2023-05-19T00:09:10.217Z,46.72
2023-05-19T00:11:39.100Z,46.22
2023-05-19T00:14:08.010Z,45.30
2023-05-19T00:16:35.116Z,45.48
2023-05-19T00:19:04.053Z,46.14
2023-05-19T00:21:32.185Z,45.80
2023-05-19T00:23:59.278Z,48.07
2023-05-19T00:26:28.181Z,46.43
2023-05-19T00:28:59.796Z,47.19
2023-05-19T00:31:26.539Z,46.83
2023-05-19T00:33:53.330Z,45.47
2023-05-19T00:36:20.009Z,45.04
2023-05-19T00:38:46.579Z,45.90
2023-05-19T00:41:13.172Z,45.12
2023-05-19T00:43:39.874Z,46.58
2023-05-19T00:46:07.450Z,45.66
2023-05-19T00:48:34.279Z,45.88
2023-05-19T00:51:05.285Z,45.32
2023-05-19T00:53:35.459Z,44.99
2023-05-19T00:56:03.170Z,46.76
2023-05-19T00:58:30.903Z,47.60
2023-05-19T01:01:07.316Z,45.81
2023-05-19T01:03:35.603Z,47.00
2023-05-19T01:06:06.355Z,46.68
2023-05-19T01:08:33.955Z,45.82
2023-05-19T01:11:00.883Z,46.41
2023-05-19T01:13:28.583Z,46.50
2023-05-19T01:16:00.036Z,46.46
2023-05-19T01:18:35.731Z,46.85
2023-05-19T01:21:30.426Z,46.33
2023-05-19T01:24:18.271Z,45.81
2023-05-19T01:26:59.500Z,47.13
2023-05-19T01:30:03.424Z,46.71
2023-05-19T01:32:30.731Z,46.61
2023-05-19T01:34:58.357Z,45.81
2023-05-19T01:37:25.813Z,46.72
2023-05-19T01:39:52.357Z,45.29
2023-05-19T01:42:20.183Z,45.66
2023-05-19T01:44:46.994Z,45.93
2023-05-19T01:47:14.396Z,45.92
2023-05-19T01:49:42.053Z,45.83
2023-05-19T01:52:09.124Z,46.03
2023-05-19T01:54:35.737Z,46.22
2023-05-19T01:57:08.245Z,45.83
2023-05-19T01:59:41.343Z,45.48
2023-05-19T02:02:26.998Z,46.79
2023-05-19T02:04:56.356Z,46.55
2023-05-19T02:07:32.466Z,45.77
2023-05-19T02:10:07.242Z,46.14
2023-05-19T02:12:40.109Z,46.53
2023-05-19T02:15:10.034Z,46.61
2023-05-19T02:17:41.394Z,47.18
2023-05-19T02:20:10.583Z,47.66
2023-05-19T02:22:37.156Z,46.72
2023-05-19T02:25:03.846Z,47.10
2023-05-19T02:27:33.835Z,47.09
2023-05-19T02:30:03.419Z,47.74
2023-05-19T02:32:31.518Z,48.22
2023-05-19T02:34:58.098Z,48.57
2023-05-19T02:37:25.213Z,47.99
2023-05-19T02:39:51.769Z,47.57
2023-05-19T02:42:18.679Z,48.12
2023-05-19T02:44:45.305Z,48.70
2023-05-19T02:47:13.076Z,48.79
2023-05-19T02:49:40.062Z,47.62
2023-05-19T02:52:07.000Z,49.27
2023-05-19T02:54:34.370Z,48.37
2023-05-19T02:57:01.416Z,48.32
2023-05-19T02:59:28.053Z,47.62
2023-05-19T03:02:00.123Z,47.52
2023-05-19T03:04:27.479Z,48.57
2023-05-19T03:06:57.296Z,48.63
2023-05-19T03:09:23.950Z,49.05
2023-05-19T03:11:50.519Z,48.62
2023-05-19T03:14:18.590Z,49.24
2023-05-19T03:16:45.326Z,48.98
2023-05-19T03:19:12.433Z,48.40
2023-05-19T03:21:39.208Z,49.03
2023-05-19T03:24:06.647Z,49.91
2023-05-19T03:26:33.366Z,48.90
2023-05-19T03:29:00.015Z,50.11
2023-05-19T03:31:26.833Z,49.42
2023-05-19T03:33:53.770Z,48.95
2023-05-19T03:36:22.199Z,48.72
2023-05-19T03:38:48.880Z,48.85
2023-05-19T03:41:15.881Z,49.60
2023-05-19T03:43:42.481Z,50.55
2023-05-19T03:46:09.917Z,49.87
2023-05-19T03:48:55.036Z,50.36
2023-05-19T03:51:38.829Z,49.52
2023-05-19T03:54:17.978Z,49.73
2023-05-19T03:56:44.568Z,49.69
2023-05-19T03:59:12.269Z,49.95
2023-05-19T04:01:38.791Z,49.89
2023-05-19T04:04:05.721Z,49.30
2023-05-19T04:06:32.336Z,49.92
2023-05-19T04:08:58.943Z,50.62
2023-05-19T04:11:25.568Z,50.08
2023-05-19T04:13:52.102Z,50.30
2023-05-19T04:16:18.789Z,49.65
2023-05-19T04:18:46.396Z,50.03
2023-05-19T04:21:13.355Z,49.56
2023-05-19T04:23:39.917Z,50.37
2023-05-19T04:26:06.865Z,50.26
2023-05-19T04:28:36.648Z,51.39
2023-05-19T04:31:03.489Z,50.87
2023-05-19T04:33:30.154Z,51.52
2023-05-19T04:35:58.324Z,51.08
2023-05-19T04:38:24.810Z,51.92
2023-05-19T04:40:52.001Z,50.91
2023-05-19T04:43:19.372Z,51.89
2023-05-19T04:45:46.555Z,51.67
2023-05-19T04:48:13.916Z,50.90
2023-05-19T04:50:42.218Z,51.20
2023-05-19T04:53:09.666Z,51.68
2023-05-19T04:55:37.647Z,51.07
2023-05-19T04:58:05.016Z,50.94
2023-05-19T05:00:33.026Z,51.19
2023-05-19T05:03:07.187Z,51.57
2023-05-19T05:05:34.982Z,51.65
2023-05-19T05:08:01.522Z,51.96
2023-05-19T05:10:32.086Z,51.00
2023-05-19T05:12:59.213Z,50.83
2023-05-19T05:15:28.776Z,51.06
2023-05-19T05:17:57.858Z,52.02
2023-05-19T05:20:25.151Z,51.57
2023-05-19T05:22:52.032Z,50.84
2023-05-19T05:25:19.773Z,50.66
2023-05-19T05:27:46.416Z,51.40
2023-05-19T05:30:13.896Z,50.61
2023-05-19T05:32:41.562Z,50.02
2023-05-19T05:35:16.085Z,51.78
2023-05-19T05:37:42.881Z,50.40
2023-05-19T05:40:09.749Z,51.79
2023-05-19T05:42:36.473Z,50.29
2023-05-19T05:45:03.116Z,50.03
2023-05-19T05:47:30.125Z,50.04
2023-05-19T05:49:57.037Z,50.88
2023-05-19T05:52:27.795Z,51.82
2023-05-19T05:54:55.042Z,49.13
2023-05-19T05:57:23.164Z,50.25
2023-05-19T05:59:50.762Z,48.79
2023-05-19T06:02:17.936Z,48.63
2023-05-19T06:04:44.564Z,48.33
2023-05-19T06:07:11.120Z,48.93
2023-05-19T06:09:38.745Z,49.89
2023-05-19T06:12:07.036Z,49.35
2023-05-19T06:14:38.922Z,50.42
2023-05-19T06:17:19.591Z,48.63
2023-05-19T06:19:46.151Z,49.56
2023-05-19T06:22:12.702Z,49.77
2023-05-19T06:24:39.699Z,50.53
2023-05-19T06:27:08.519Z,48.04
2023-05-19T06:29:35.103Z,48.59
2023-05-19T06:32:04.435Z,48.84
2023-05-19T06:34:31.241Z,48.50
2023-05-19T06:36:58.111Z,49.31
2023-05-19T06:39:24.980Z,49.89
2023-05-19T06:41:51.599Z,48.49
2023-05-19T06:44:40.932Z,49.59
2023-05-19T06:47:11.191Z,49.39
2023-05-19T06:49:38.116Z,49.45
2023-05-19T06:52:04.913Z,48.84
2023-05-19T06:54:31.582Z,49.64
2023-05-19T06:56:58.124Z,49.91
2023-05-19T06:59:24.685Z,48.71
2023-05-19T07:01:51.458Z,50.21
2023-05-19T07:04:18.363Z,49.74
2023-05-19T07:06:44.902Z,47.83
2023-05-19T07:09:11.579Z,47.38
2023-05-19T07:11:39.575Z,49.18
2023-05-19T07:14:06.663Z,49.43
2023-05-19T07:16:33.301Z,48.34
2023-05-19T07:18:59.955Z,46.91
2023-05-19T07:21:26.569Z,46.70
2023-05-19T07:23:53.157Z,48.56
2023-05-19T07:26:19.729Z,47.04
2023-05-19T07:28:46.300Z,47.18
2023-05-19T07:31:12.882Z,46.13
2023-05-19T07:33:39.463Z,46.92
2023-05-19T07:36:06.195Z,46.67
2023-05-19T07:38:34.748Z,48.58
2023-05-19T07:41:02.115Z,46.54
2023-05-19T07:43:28.825Z,48.64
2023-05-19T07:45:56.390Z,47.96
2023-05-19T07:48:25.583Z,46.25
2023-05-19T07:50:52.745Z,49.03
2023-05-19T07:53:19.860Z,47.53
2023-05-19T07:55:46.436Z,47.11
2023-05-19T07:58:13.008Z,46.46
2023-05-19T08:00:39.591Z,46.66
2023-05-19T08:03:07.844Z,45.06
2023-05-19T08:05:35.188Z,46.55
2023-05-19T08:08:02.988Z,46.52
2023-05-19T08:10:29.467Z,47.23
2023-05-19T08:12:56.036Z,47.43
2023-05-19T08:15:22.578Z,45.75
2023-05-19T08:17:49.213Z,47.62
2023-05-19T08:20:15.970Z,45.54
2023-05-19T08:22:42.842Z,44.80
2023-05-19T08:25:09.593Z,46.39
2023-05-19T08:27:36.792Z,44.78
2023-05-19T08:30:03.478Z,46.05
2023-05-19T08:32:30.083Z,46.12
2023-05-19T08:34:56.689Z,46.50
2023-05-19T08:37:23.245Z,46.91
2023-05-19T08:39:49.845Z,46.66
2023-05-19T08:42:16.464Z,47.62
2023-05-19T08:44:43.978Z,46.63
2023-05-19T08:47:13.972Z,48.13
2023-05-19T08:49:47.348Z,46.68
2023-05-19T08:52:42.388Z,47.24
2023-05-19T08:55:11.557Z,47.54
2023-05-19T08:57:38.622Z,46.21
2023-05-19T09:00:11.726Z,46.64
2023-05-19T09:02:50.297Z,46.59
2023-05-19T09:05:25.331Z,46.45
2023-05-19T09:07:51.927Z,46.52
2023-05-19T09:10:18.488Z,47.94
2023-05-19T09:12:47.450Z,46.35
2023-05-19T09:15:17.524Z,45.63
2023-05-19T09:17:45.881Z,46.30
2023-05-19T09:20:12.971Z,46.57
2023-05-19T09:22:47.216Z,46.01
2023-05-19T09:25:20.863Z,47.14
2023-05-19T09:27:48.653Z,47.27
2023-05-19T09:30:18.441Z,45.50
2023-05-19T09:32:47.155Z,45.79
2023-05-19T09:35:13.916Z,46.64
2023-05-19T09:37:41.437Z,46.45
2023-05-19T09:40:11.075Z,47.13
2023-05-19T09:42:38.777Z,45.39
2023-05-19T09:45:06.809Z,47.30
2023-05-19T09:47:40.020Z,45.41
2023-05-19T09:50:10.952Z,46.38
2023-05-19T09:52:43.785Z,45.10
2023-05-19T09:55:12.665Z,45.99
2023-05-19T09:57:40.217Z,46.01
2023-05-19T10:00:19.560Z,47.84
2023-05-19T10:02:47.239Z,46.74
2023-05-19T10:05:17.018Z,46.26
2023-05-19T10:07:48.619Z,45.23
2023-05-19T10:10:15.749Z,47.23
2023-05-19T10:12:42.701Z,46.69
2023-05-19T10:15:13.362Z,45.31
2023-05-19T10:17:41.176Z,45.24
2023-05-19T10:20:12.503Z,47.02
2023-05-19T10:22:40.343Z,44.87
2023-05-19T10:25:07.120Z,47.74
2023-05-19T10:27:36.811Z,47.20
2023-05-19T10:30:12.414Z,47.06
2023-05-19T10:32:41.374Z,46.84
2023-05-19T10:35:50.909Z,47.58
2023-05-19T10:38:43.091Z,46.40
2023-05-19T10:41:18.674Z,47.10
2023-05-19T10:44:30.176Z,47.62
2023-05-19T10:46:57.272Z,46.58
2023-05-19T10:49:24.258Z,45.06
2023-05-19T10:51:52.257Z,46.60
2023-05-19T10:54:39.119Z,48.47
2023-05-19T10:57:07.041Z,45.85
2023-05-19T10:59:35.618Z,46.25
2023-05-19T11:02:08.917Z,46.58
2023-05-19T11:04:53.563Z,46.38
2023-05-19T11:07:21.712Z,46.74
2023-05-19T11:09:52.263Z,46.47
2023-05-19T11:12:24.779Z,46.46
2023-05-19T11:14:55.031Z,45.96
2023-05-19T11:17:22.366Z,44.59
2023-05-19T11:19:54.836Z,45.57
2023-05-19T11:22:27.305Z,45.14
2023-05-19T11:24:57.251Z,44.95
2023-05-19T11:27:31.815Z,45.94
2023-05-19T11:30:00.530Z,43.68
2023-05-19T11:32:31.222Z,45.87
2023-05-19T11:34:58.018Z,45.93
2023-05-19T11:37:24.721Z,46.51
2023-05-19T11:39:52.223Z,45.74
2023-05-19T11:42:19.294Z,44.11
2023-05-19T11:44:46.412Z,46.06
2023-05-19T11:47:14.001Z,45.70
2023-05-19T11:49:45.296Z,45.01
2023-05-19T11:52:11.992Z,45.51
2023-05-19T11:54:39.340Z,43.82
2023-05-19T11:57:06.060Z,45.79
2023-05-19T11:59:35.615Z,44.85
2023-05-19T12:02:27.789Z,43.96
2023-05-19T12:04:54.932Z,43.49
2023-05-19T12:07:25.087Z,44.34
2023-05-19T12:09:52.318Z,46.39
2023-05-19T12:12:22.770Z,44.35
2023-05-19T12:14:53.327Z,45.73
2023-05-19T12:17:21.288Z,43.09
2023-05-19T12:19:48.974Z,44.47
2023-05-19T12:22:16.593Z,46.39
2023-05-19T12:24:44.306Z,44.88
2023-05-19T12:27:14.069Z,44.40
2023-05-19T12:29:41.047Z,46.16
2023-05-19T12:32:08.429Z,44.68
2023-05-19T12:34:38.801Z,47.21
2023-05-19T12:37:06.178Z,44.43
2023-05-19T12:39:32.789Z,46.16
2023-05-19T12:42:09.539Z,46.78
2023-05-19T12:44:42.741Z,46.26
2023-05-19T12:47:09.289Z,46.51
2023-05-19T12:49:35.917Z,46.23
2023-05-19T12:52:11.824Z,46.11
2023-05-19T12:54:40.964Z,44.84
2023-05-19T12:57:07.683Z,45.93
2023-05-19T12:59:38.705Z,47.40
2023-05-19T13:02:06.835Z,47.31
2023-05-19T13:04:33.533Z,45.90
2023-05-19T13:07:00.065Z,45.24
2023-05-19T13:09:27.879Z,45.05
2023-05-19T13:11:54.764Z,46.32
2023-05-19T13:14:21.809Z,45.49
2023-05-19T13:16:48.952Z,46.67
2023-05-19T13:19:25.262Z,45.59
2023-05-19T13:21:52.767Z,45.08
2023-05-19T13:24:19.399Z,47.09
2023-05-19T13:26:46.004Z,44.98
2023-05-19T13:29:12.706Z,45.84
2023-05-19T13:31:39.413Z,48.15
2023-05-19T13:34:05.973Z,46.60
2023-05-19T13:36:36.480Z,46.37
2023-05-19T13:39:03.262Z,46.87
2023-05-19T13:41:29.855Z,45.93
2023-05-19T13:43:58.850Z,45.61
2023-05-19T13:46:36.667Z,48.05
2023-05-19T13:49:10.438Z,46.30
2023-05-19T13:51:37.658Z,47.20
2023-05-19T13:54:04.952Z,46.63
2023-05-19T13:56:31.745Z,44.84
2023-05-19T13:58:58.496Z,46.89
2023-05-19T14:01:29.483Z,45.81
2023-05-19T14:03:58.444Z,45.67
2023-05-19T14:06:25.087Z,45.91
2023-05-19T14:08:51.613Z,45.53
2023-05-19T14:11:25.207Z,43.39
2023-05-19T14:13:52.860Z,45.56
2023-05-19T14:16:20.394Z,45.79
2023-05-19T14:18:47.482Z,44.45
2023-05-19T14:21:14.122Z,44.83
2023-05-19T14:23:40.745Z,45.92
2023-05-19T14:26:07.354Z,46.27
2023-05-19T14:28:34.006Z,45.89
2023-05-19T14:31:00.659Z,46.41
2023-05-19T14:33:27.253Z,45.59
2023-05-19T14:35:53.993Z,46.89
2023-05-19T14:38:20.641Z,45.59
2023-05-19T14:40:48.464Z,47.94
2023-05-19T14:43:15.063Z,47.10
2023-05-19T14:45:44.154Z,47.10
2023-05-19T14:48:13.428Z,44.42
2023-05-19T14:50:40.039Z,46.01
2023-05-19T14:53:06.560Z,46.09
2023-05-19T14:55:33.112Z,46.16
2023-05-19T14:57:59.712Z,45.95
2023-05-19T15:00:26.908Z,47.13
2023-05-19T15:02:54.074Z,45.03
2023-05-19T15:05:20.735Z,45.46
2023-05-19T15:07:47.263Z,45.29
2023-05-19T15:10:13.800Z,44.87
2023-05-19T15:12:40.441Z,47.00
2023-05-19T15:15:07.661Z,46.46
2023-05-19T15:17:34.255Z,45.35
2023-05-19T15:20:00.979Z,45.13
2023-05-19T15:22:27.640Z,45.98
2023-05-19T15:24:55.305Z,43.45
2023-05-19T15:27:22.474Z,44.12
2023-05-19T15:29:49.775Z,45.82
2023-05-19T15:32:16.352Z,43.44
2023-05-19T15:34:42.975Z,43.90
2023-05-19T15:37:09.608Z,44.11
2023-05-19T15:39:36.111Z,43.88
2023-05-19T15:42:02.691Z,44.15
2023-05-19T15:44:29.997Z,46.78
2023-05-19T15:46:56.519Z,46.17
2023-05-19T15:49:25.035Z,45.46
2023-05-19T15:51:51.693Z,44.02
2023-05-19T15:54:18.219Z,44.17
2023-05-19T15:56:44.752Z,46.07
2023-05-19T15:59:11.245Z,44.61
2023-05-19T16:01:37.838Z,45.77
2023-05-19T16:04:04.680Z,45.79
2023-05-19T16:06:31.613Z,46.70
2023-05-19T16:08:58.178Z,45.88
2023-05-19T16:11:24.776Z,45.37
2023-05-19T16:13:51.320Z,44.31
2023-05-19T16:16:18.775Z,44.04
2023-05-19T16:18:45.507Z,42.52
2023-05-19T16:21:12.137Z,44.58
2023-05-19T16:23:38.679Z,44.34
2023-05-19T16:26:05.323Z,43.84
2023-05-19T16:28:32.443Z,43.89
2023-05-19T16:31:00.159Z,41.89
2023-05-19T16:33:27.412Z,44.79
2023-05-19T16:35:54.030Z,45.31
2023-05-19T16:38:20.715Z,44.75
2023-05-19T16:40:47.256Z,45.72
2023-05-19T16:43:13.838Z,45.62
2023-05-19T16:45:40.599Z,43.39
2023-05-19T16:48:07.183Z,43.33
2023-05-19T16:50:34.033Z,43.70
2023-05-19T16:53:00.922Z,42.95
2023-05-19T16:55:27.433Z,43.16
2023-05-19T16:57:53.971Z,43.16
2023-05-19T17:00:20.665Z,43.48
2023-05-19T17:02:47.366Z,45.05
2023-05-19T17:05:14.091Z,45.31
2023-05-19T17:07:40.606Z,45.97
2023-05-19T17:10:07.651Z,43.90
2023-05-19T17:12:34.312Z,45.50
2023-05-19T17:15:01.175Z,46.91
2023-05-19T17:17:27.730Z,47.80
2023-05-19T17:19:54.295Z,46.49
2023-05-19T17:22:20.885Z,46.06
2023-05-19T17:24:47.451Z,46.09
2023-05-19T17:27:15.045Z,46.49
2023-05-19T17:29:41.630Z,46.76
2023-05-19T17:32:08.289Z,47.51
2023-05-19T17:34:34.961Z,48.38
2023-05-19T17:37:01.553Z,48.59
2023-05-19T17:39:28.369Z,47.51
2023-05-19T17:41:54.950Z,47.85
2023-05-19T17:44:21.522Z,47.96
2023-05-19T17:46:48.555Z,48.42
2023-05-19T17:49:15.731Z,49.50
2023-05-19T17:51:42.476Z,48.99
2023-05-19T17:54:09.173Z,49.59
2023-05-19T17:56:37.442Z,49.70
2023-05-19T17:59:04.111Z,50.22
2023-05-19T18:01:30.973Z,50.39
2023-05-19T18:03:57.860Z,50.68
2023-05-19T18:06:24.922Z,51.21
2023-05-19T18:08:52.650Z,51.58
2023-05-19T18:11:19.271Z,51.83
2023-05-19T18:13:45.955Z,51.37
2023-05-19T18:16:12.887Z,51.71
2023-05-19T18:18:43.212Z,51.59
2023-05-19T18:21:14.309Z,51.35
2023-05-19T18:23:41.442Z,51.82
2023-05-19T18:26:07.998Z,51.96
2023-05-19T18:28:35.625Z,51.92
2023-05-19T18:31:05.980Z,52.13
2023-05-19T18:33:33.221Z,52.12
2023-05-19T18:35:59.834Z,52.41
2023-05-19T18:38:26.408Z,52.43
2023-05-19T18:40:53.114Z,52.40
2023-05-19T18:43:19.662Z,52.63
2023-05-19T18:45:49.178Z,51.74
2023-05-19T18:48:16.076Z,51.81
2023-05-19T18:50:44.539Z,52.22
2023-05-19T18:53:11.763Z,52.52
2023-05-19T18:55:38.653Z,52.35
2023-05-19T18:58:06.115Z,52.32
2023-05-19T19:00:33.116Z,52.69
2023-05-19T19:03:00.032Z,53.06
2023-05-19T19:05:26.693Z,52.51
2023-05-19T19:07:53.412Z,52.79
2023-05-19T19:10:20.061Z,52.05
2023-05-19T19:12:46.662Z,52.75
2023-05-19T19:15:13.227Z,53.31
2023-05-19T19:17:40.118Z,53.06
2023-05-19T19:20:08.175Z,53.72
2023-05-19T19:22:34.791Z,53.98
2023-05-19T19:25:01.328Z,53.45
2023-05-19T19:27:31.036Z,53.95
2023-05-19T19:29:58.608Z,53.63
2023-05-19T19:32:25.890Z,53.56
2023-05-19T19:34:53.298Z,53.32
2023-05-19T19:37:19.865Z,52.99
2023-05-19T19:39:46.717Z,53.52
2023-05-19T19:42:13.375Z,54.33
2023-05-19T19:44:39.987Z,54.08
2023-05-19T19:47:06.825Z,54.19
2023-05-19T19:49:33.778Z,53.78
2023-05-19T19:52:00.319Z,53.53
2023-05-19T19:54:26.861Z,52.69
2023-05-19T19:56:53.504Z,53.27
2023-05-19T19:59:20.063Z,52.59
2023-05-19T20:01:46.693Z,52.67
2023-05-19T20:04:13.445Z,52.36
2023-05-19T20:06:40.119Z,52.62
2023-05-19T20:09:06.868Z,52.95
2023-05-19T20:11:33.465Z,52.75
2023-05-19T20:14:00.033Z,52.70
2023-05-19T20:16:26.847Z,52.77
2023-05-19T20:18:53.529Z,53.04
2023-05-19T20:21:20.097Z,53.18
2023-05-19T20:23:46.662Z,52.64
2023-05-19T20:26:13.713Z,52.48
2023-05-19T20:28:40.627Z,52.97
2023-05-19T20:31:07.458Z,52.46
2023-05-19T20:33:34.869Z,53.08
2023-05-19T20:36:01.410Z,53.33
2023-05-19T20:38:28.254Z,53.77
2023-05-19T20:40:54.841Z,53.21
2023-05-19T20:43:21.569Z,52.65
2023-05-19T20:45:48.169Z,52.73
2023-05-19T20:48:17.864Z,53.16
2023-05-19T20:50:44.537Z,53.28
2023-05-19T20:53:11.311Z,53.35
2023-05-19T20:55:38.740Z,52.95
2023-05-19T20:58:05.534Z,53.01
2023-05-19T21:00:32.512Z,52.88
2023-05-19T21:02:59.755Z,52.98
2023-05-19T21:05:26.464Z,53.62
2023-05-19T21:07:53.097Z,53.20
2023-05-19T21:10:19.720Z,53.03
2023-05-19T21:12:46.734Z,53.29
2023-05-19T21:15:13.653Z,52.88
2023-05-19T21:17:40.468Z,53.07
2023-05-19T21:23:01.852Z,53.78
2023-05-19T21:25:28.773Z,53.70
2023-05-19T21:27:55.987Z,53.55
2023-05-19T21:30:23.503Z,53.38
2023-05-19T21:32:50.381Z,53.38
2023-05-19T21:41:02.310Z,53.59
2023-05-19T21:43:28.876Z,53.97
2023-05-19T21:45:55.454Z,53.60
2023-05-19T21:48:22.291Z,54.00
2023-05-19T21:50:55.446Z,54.41
2023-05-19T21:53:22.561Z,53.80
2023-05-19T21:55:49.483Z,53.50
2023-05-19T21:58:16.177Z,54.09
2023-05-19T22:00:43.366Z,54.25
2023-05-19T22:03:09.929Z,53.92
2023-05-19T22:05:38.057Z,54.16
2023-05-19T22:08:04.779Z,54.09
2023-05-19T22:10:31.772Z,54.57
2023-05-19T22:12:58.869Z,54.42
2023-05-19T22:15:26.625Z,54.04
2023-05-19T22:17:53.259Z,54.12
2023-05-19T22:20:20.008Z,54.21
2023-05-19T22:22:46.538Z,54.81
2023-05-19T22:25:13.146Z,54.52
2023-05-19T22:27:39.807Z,53.66
2023-05-19T22:30:07.341Z,54.01
2023-05-19T22:32:35.085Z,54.47
2023-05-19T22:35:01.738Z,54.68
2023-05-19T22:37:31.200Z,55.35
2023-05-19T22:39:57.725Z,56.23
2023-05-19T22:42:24.416Z,55.20
2023-05-19T22:44:51.137Z,55.63
2023-05-19T22:47:17.673Z,55.63
2023-05-19T22:49:44.289Z,56.77
2023-05-19T22:52:11.440Z,57.01
2023-05-19T22:54:38.076Z,56.80
2023-05-19T22:57:05.174Z,56.47
2023-05-19T22:59:31.913Z,55.26
2023-05-19T23:01:58.474Z,56.91
2023-05-19T23:04:25.165Z,56.31
2023-05-19T23:06:51.897Z,56.74
2023-05-19T23:09:18.520Z,56.62
2023-05-19T23:11:45.339Z,56.90
2023-05-19T23:14:12.021Z,56.59
2023-05-19T23:16:38.641Z,56.50
2023-05-19T23:19:05.521Z,56.82
2023-05-19T23:21:32.839Z,56.32
2023-05-19T23:23:59.951Z,57.20
2023-05-19T23:26:27.362Z,57.40
2023-05-19T23:28:54.104Z,57.60
2023-05-19T23:31:20.711Z,57.37
2023-05-19T23:33:47.272Z,57.99
2023-05-19T23:36:14.044Z,57.38
2023-05-19T23:38:40.622Z,56.34
2023-05-19T23:41:07.181Z,56.49
2023-05-19T23:43:33.786Z,57.45
2023-05-19T23:46:00.511Z,57.24
2023-05-19T23:48:28.928Z,56.78
2023-05-19T23:50:55.461Z,56.57
2023-05-19T23:53:22.066Z,57.21
2023-05-19T23:55:48.600Z,57.00
2023-05-19T23:58:15.970Z,57.66
